sensor_id;sensor_type;location;lat;lon;timestamp;pressure;altitude;pressure_sealevel;temperature;humidity
24230;BME280;12362;50.004;8.006;2023-06-22T00:02:06;100606.06;;;23.05;100.00
24230;BME280;12362;50.004;8.006;2023-06-22T00:04:31;100621.22;;;23.13;100.00
24230;BME280;12362;50.004;8.006;2023-06-22T00:06:56;100624.66;;;23.23;100.00
24230;BME280;12362;50.004;8.006;2023-06-22T00:09:22;100617.41;;;23.42;100.00
24230;BME280;12362;50.004;8.006;2023-06-22T00:11:47;100615.88;;;23.57;100.00
24230;BME280;12362;50.004;8.006;2023-06-22T00:14:13;100608.69;;;23.32;100.00
24230;BME280;12362;50.004;8.006;2023-06-22T00:16:38;100603.50;;;23.13;100.00
24230;BME280;12362;50.004;8.006;2023-06-22T00:19:04;100602.56;;;23.05;100.00
24230;BME280;12362;50.004;8.006;2023-06-22T00:21:31;100601.88;;;23.03;100.00
24230;BME280;12362;50.004;8.006;2023-06-22T00:23:56;100600.34;;;23.00;100.00
24230;BME280;12362;50.004;8.006;2023-06-22T00:26:23;100616.41;;;22.99;100.00
24230;BME280;12362;50.004;8.006;2023-06-22T00:28:48;100623.19;;;23.01;100.00
24230;BME280;12362;50.004;8.006;2023-06-22T00:31:14;100637.78;;;22.88;100.00
24230;BME280;12362;50.004;8.006;2023-06-22T00:33:39;100654.41;;;22.81;100.00
24230;BME280;12362;50.004;8.006;2023-06-22T00:36:05;100673.38;;;22.76;100.00
24230;BME280;12362;50.004;8.006;2023-06-22T00:38:33;100685.22;;;22.72;100.00
24230;BME280;12362;50.004;8.006;2023-06-22T00:41:00;100695.81;;;22.72;100.00
24230;BME280;12362;50.004;8.006;2023-06-22T00:43:26;100701.72;;;22.66;100.00
24230;BME280;12362;50.004;8.006;2023-06-22T00:45:51;100715.69;;;22.40;100.00
24230;BME280;12362;50.004;8.006;2023-06-22T00:48:18;100730.84;;;22.28;100.00
24230;BME280;12362;50.004;8.006;2023-06-22T00:50:43;100737.97;;;22.37;100.00
24230;BME280;12362;50.004;8.006;2023-06-22T00:53:09;100743.28;;;22.37;100.00
24230;BME280;12362;50.004;8.006;2023-06-22T00:55:36;100726.25;;;22.21;100.00
24230;BME280;12362;50.004;8.006;2023-06-22T00:58:04;100700.50;;;22.13;100.00
24230;BME280;12362;50.004;8.006;2023-06-22T01:00:33;100659.03;;;22.04;100.00
24230;BME280;12362;50.004;8.006;2023-06-22T01:02:59;100597.78;;;21.90;100.00
24230;BME280;12362;50.004;8.006;2023-06-22T01:05:25;100569.25;;;21.56;100.00
24230;BME280;12362;50.004;8.006;2023-06-22T01:10:43;100592.75;;;21.49;100.00
24230;BME280;12362;50.004;8.006;2023-06-22T01:16:16;100622.56;;;21.61;100.00
24230;BME280;12362;50.004;8.006;2023-06-22T01:18:44;100631.31;;;21.61;100.00
24230;BME280;12362;50.004;8.006;2023-06-22T01:21:15;100638.56;;;21.69;100.00
24230;BME280;12362;50.004;8.006;2023-06-22T01:26:42;100633.00;;;21.62;100.00
24230;BME280;12362;50.004;8.006;2023-06-22T01:29:15;100640.22;;;21.60;100.00
24230;BME280;12362;50.004;8.006;2023-06-22T01:31:42;100647.75;;;21.65;100.00
24230;BME280;12362;50.004;8.006;2023-06-22T01:34:11;100648.31;;;21.59;100.00
24230;BME280;12362;50.004;8.006;2023-06-22T01:36:39;100629.47;;;21.43;100.00
24230;BME280;12362;50.004;8.006;2023-06-22T01:39:05;100612.09;;;21.40;100.00
24230;BME280;12362;50.004;8.006;2023-06-22T01:41:35;100608.19;;;21.44;100.00
24230;BME280;12362;50.004;8.006;2023-06-22T01:44:03;100599.28;;;21.45;100.00
24230;BME280;12362;50.004;8.006;2023-06-22T01:46:30;100601.38;;;21.42;100.00
24230;BME280;12362;50.004;8.006;2023-06-22T01:48:56;100599.16;;;21.47;100.00
24230;BME280;12362;50.004;8.006;2023-06-22T01:51:21;100594.47;;;21.60;100.00
24230;BME280;12362;50.004;8.006;2023-06-22T01:53:47;100578.28;;;21.53;100.00
24230;BME280;12362;50.004;8.006;2023-06-22T01:56:16;100578.28;;;21.34;100.00
24230;BME280;12362;50.004;8.006;2023-06-22T01:58:49;100582.16;;;21.40;100.00
24230;BME280;12362;50.004;8.006;2023-06-22T02:01:20;100592.63;;;21.41;100.00
24230;BME280;12362;50.004;8.006;2023-06-22T02:04:12;100600.94;;;21.46;100.00
24230;BME280;12362;50.004;8.006;2023-06-22T02:06:39;100613.06;;;21.49;100.00
24230;BME280;12362;50.004;8.006;2023-06-22T02:09:12;100621.53;;;21.43;100.00
24230;BME280;12362;50.004;8.006;2023-06-22T02:11:41;100620.97;;;21.39;100.00
24230;BME280;12362;50.004;8.006;2023-06-22T02:14:08;100630.16;;;21.45;100.00
24230;BME280;12362;50.004;8.006;2023-06-22T02:16:34;100634.91;;;21.41;100.00
24230;BME280;12362;50.004;8.006;2023-06-22T02:19:02;100651.03;;;21.48;100.00
24230;BME280;12362;50.004;8.006;2023-06-22T02:21:34;100651.19;;;21.56;100.00
24230;BME280;12362;50.004;8.006;2023-06-22T02:23:59;100657.72;;;21.42;100.00
24230;BME280;12362;50.004;8.006;2023-06-22T02:26:25;100641.56;;;21.36;100.00
24230;BME280;12362;50.004;8.006;2023-06-22T02:28:53;100615.53;;;21.22;100.00
24230;BME280;12362;50.004;8.006;2023-06-22T02:31:19;100584.50;;;21.14;100.00
24230;BME280;12362;50.004;8.006;2023-06-22T02:33:45;100557.97;;;21.07;100.00
24230;BME280;12362;50.004;8.006;2023-06-22T02:36:11;100552.38;;;21.00;100.00
24230;BME280;12362;50.004;8.006;2023-06-22T02:38:40;100566.16;;;21.04;100.00
24230;BME280;12362;50.004;8.006;2023-06-22T02:41:16;100582.69;;;21.06;100.00
24230;BME280;12362;50.004;8.006;2023-06-22T02:43:45;100581.31;;;21.11;100.00
24230;BME280;12362;50.004;8.006;2023-06-22T02:46:11;100577.41;;;21.15;100.00
24230;BME280;12362;50.004;8.006;2023-06-22T02:48:42;100570.34;;;21.25;100.00
24230;BME280;12362;50.004;8.006;2023-06-22T02:51:08;100566.84;;;21.15;100.00
24230;BME280;12362;50.004;8.006;2023-06-22T02:53:35;100561.28;;;21.08;100.00
24230;BME280;12362;50.004;8.006;2023-06-22T02:56:02;100561.56;;;21.06;100.00
24230;BME280;12362;50.004;8.006;2023-06-22T02:58:33;100558.50;;;21.01;100.00
24230;BME280;12362;50.004;8.006;2023-06-22T03:01:07;100549.88;;;20.99;100.00
24230;BME280;12362;50.004;8.006;2023-06-22T03:03:34;100542.22;;;20.86;100.00
24230;BME280;12362;50.004;8.006;2023-06-22T03:06:00;100542.34;;;20.94;100.00
24230;BME280;12362;50.004;8.006;2023-06-22T03:08:28;100542.34;;;20.94;100.00
24230;BME280;12362;50.004;8.006;2023-06-22T03:10:55;100538.88;;;20.94;100.00
24230;BME280;12362;50.004;8.006;2023-06-22T03:13:21;100540.25;;;20.98;100.00
24230;BME280;12362;50.004;8.006;2023-06-22T03:15:47;100537.38;;;21.01;100.00
24230;BME280;12362;50.004;8.006;2023-06-22T03:18:12;100539.88;;;21.11;100.00
24230;BME280;12362;50.004;8.006;2023-06-22T03:20:38;100539.88;;;21.11;100.00
24230;BME280;12362;50.004;8.006;2023-06-22T03:23:03;100534.97;;;20.98;100.00
24230;BME280;12362;50.004;8.006;2023-06-22T03:25:31;100537.63;;;20.98;100.00
24230;BME280;12362;50.004;8.006;2023-06-22T03:27:56;100538.75;;;20.95;100.00
24230;BME280;12362;50.004;8.006;2023-06-22T03:30:22;100528.19;;;20.95;100.00
24230;BME280;12362;50.004;8.006;2023-06-22T03:32:48;100528.19;;;20.95;100.00
24230;BME280;12362;50.004;8.006;2023-06-22T03:35:13;100524.03;;;20.93;100.00
24230;BME280;12362;50.004;8.006;2023-06-22T03:37:39;100524.03;;;20.93;100.00
24230;BME280;12362;50.004;8.006;2023-06-22T03:40:05;100521.94;;;20.96;100.00
24230;BME280;12362;50.004;8.006;2023-06-22T03:42:33;100520.13;;;20.97;100.00
24230;BME280;12362;50.004;8.006;2023-06-22T03:44:58;100524.16;;;21.01;100.00
24230;BME280;12362;50.004;8.006;2023-06-22T03:47:26;100527.50;;;21.03;100.00
24230;BME280;12362;50.004;8.006;2023-06-22T03:49:52;100536.25;;;20.94;100.00
24230;BME280;12362;50.004;8.006;2023-06-22T03:52:21;100534.41;;;20.85;100.00
24230;BME280;12362;50.004;8.006;2023-06-22T03:54:47;100530.25;;;20.82;100.00
24230;BME280;12362;50.004;8.006;2023-06-22T03:57:13;100533.72;;;20.83;100.00
24230;BME280;12362;50.004;8.006;2023-06-22T03:59:38;100539.97;;;20.91;100.00
24230;BME280;12362;50.004;8.006;2023-06-22T04:02:04;100544.28;;;20.83;100.00
24230;BME280;12362;50.004;8.006;2023-06-22T04:04:29;100544.97;;;20.85;100.00
24230;BME280;12362;50.004;8.006;2023-06-22T04:06:55;100544.84;;;20.86;100.00
24230;BME280;12362;50.004;8.006;2023-06-22T04:09:20;100552.09;;;20.94;100.00
24230;BME280;12362;50.004;8.006;2023-06-22T04:11:47;100560.13;;;20.92;100.00
24230;BME280;12362;50.004;8.006;2023-06-22T04:14:13;100544.59;;;20.89;100.00
24230;BME280;12362;50.004;8.006;2023-06-22T04:16:38;100554.06;;;21.01;100.00
24230;BME280;12362;50.004;8.006;2023-06-22T04:19:04;100562.38;;;20.97;100.00
24230;BME280;12362;50.004;8.006;2023-06-22T04:21:29;100564.03;;;20.98;100.00
24230;BME280;12362;50.004;8.006;2023-06-22T04:23:54;100563.78;;;21.01;100.00
24230;BME280;12362;50.004;8.006;2023-06-22T04:26:20;100564.06;;;21.07;100.00
24230;BME280;12362;50.004;8.006;2023-06-22T04:28:47;100560.88;;;21.13;100.00
24230;BME280;12362;50.004;8.006;2023-06-22T04:31:17;100556.16;;;21.16;100.00
24230;BME280;12362;50.004;8.006;2023-06-22T04:33:46;100555.91;;;21.19;100.00
24230;BME280;12362;50.004;8.006;2023-06-22T04:36:12;100554.91;;;21.20;100.00
24230;BME280;12362;50.004;8.006;2023-06-22T04:38:40;100555.75;;;21.21;100.00
24230;BME280;12362;50.004;8.006;2023-06-22T04:41:06;100549.91;;;21.17;100.00
24230;BME280;12362;50.004;8.006;2023-06-22T04:43:34;100546.97;;;21.20;100.00
24230;BME280;12362;50.004;8.006;2023-06-22T04:45:59;100544.75;;;21.25;100.00
24230;BME280;12362;50.004;8.006;2023-06-22T04:48:31;100546.00;;;21.21;100.00
24230;BME280;12362;50.004;8.006;2023-06-22T04:51:01;100552.69;;;21.25;100.00
24230;BME280;12362;50.004;8.006;2023-06-22T04:53:29;100547.25;;;21.27;100.00
24230;BME280;12362;50.004;8.006;2023-06-22T04:55:55;100554.91;;;21.20;100.00
24230;BME280;12362;50.004;8.006;2023-06-22T04:58:21;100551.28;;;21.21;100.00
24230;BME280;12362;50.004;8.006;2023-06-22T05:00:47;100550.88;;;21.16;100.00
24230;BME280;12362;50.004;8.006;2023-06-22T05:03:13;100548.63;;;21.21;100.00
24230;BME280;12362;50.004;8.006;2023-06-22T05:05:38;100536.84;;;21.35;100.00
24230;BME280;12362;50.004;8.006;2023-06-22T05:08:04;100540.84;;;21.39;100.00
24230;BME280;12362;50.004;8.006;2023-06-22T05:10:32;100539.91;;;21.49;100.00
24230;BME280;12362;50.004;8.006;2023-06-22T05:12:58;100535.16;;;21.53;100.00
24230;BME280;12362;50.004;8.006;2023-06-22T05:15:23;100536.16;;;21.61;100.00
24230;BME280;12362;50.004;8.006;2023-06-22T05:17:53;100539.78;;;21.70;100.00
24230;BME280;12362;50.004;8.006;2023-06-22T05:20:19;100535.84;;;21.83;100.00
24230;BME280;12362;50.004;8.006;2023-06-22T05:22:44;100525.09;;;21.94;100.00
24230;BME280;12362;50.004;8.006;2023-06-22T05:25:11;100521.19;;;22.07;100.00
24230;BME280;12362;50.004;8.006;2023-06-22T05:27:37;100514.13;;;22.25;100.00
24230;BME280;12362;50.004;8.006;2023-06-22T05:30:07;100507.81;;;22.45;100.00
24230;BME280;12362;50.004;8.006;2023-06-22T05:32:33;100503.31;;;22.55;100.00
24230;BME280;12362;50.004;8.006;2023-06-22T05:34:59;100510.75;;;22.69;100.00
24230;BME280;12362;50.004;8.006;2023-06-22T05:37:24;100516.84;;;22.79;100.00
24230;BME280;12362;50.004;8.006;2023-06-22T05:39:50;100514.22;;;22.96;100.00
24230;BME280;12362;50.004;8.006;2023-06-22T05:42:16;100509.56;;;22.98;100.00
24230;BME280;12362;50.004;8.006;2023-06-22T05:44:41;100506.91;;;22.98;100.00
24230;BME280;12362;50.004;8.006;2023-06-22T05:47:07;100503.97;;;23.01;100.00
24230;BME280;12362;50.004;8.006;2023-06-22T05:49:32;100501.50;;;23.00;100.00
24230;BME280;12362;50.004;8.006;2023-06-22T05:51:58;100506.59;;;23.11;100.00
24230;BME280;12362;50.004;8.006;2023-06-22T05:54:25;100511.28;;;23.17;100.00
24230;BME280;12362;50.004;8.006;2023-06-22T05:56:50;100507.97;;;23.32;100.00
24230;BME280;12362;50.004;8.006;2023-06-22T05:59:16;100505.38;;;23.40;100.00
24230;BME280;12362;50.004;8.006;2023-06-22T06:01:41;100515.66;;;23.61;100.00
24230;BME280;12362;50.004;8.006;2023-06-22T06:04:07;100512.25;;;23.68;100.00
24230;BME280;12362;50.004;8.006;2023-06-22T06:06:35;100515.94;;;23.75;100.00
24230;BME280;12362;50.004;8.006;2023-06-22T06:09:05;100511.13;;;23.96;100.00
24230;BME280;12362;50.004;8.006;2023-06-22T06:11:32;100514.38;;;24.15;100.00
24230;BME280;12362;50.004;8.006;2023-06-22T06:13:58;100520.41;;;24.51;100.00
24230;BME280;12362;50.004;8.006;2023-06-22T06:16:24;100514.94;;;24.52;100.00
24230;BME280;12362;50.004;8.006;2023-06-22T06:18:49;100509.63;;;24.52;100.00
24230;BME280;12362;50.004;8.006;2023-06-22T06:21:16;100511.03;;;24.72;100.00
24230;BME280;12362;50.004;8.006;2023-06-22T06:23:42;100516.72;;;24.93;100.00
24230;BME280;12362;50.004;8.006;2023-06-22T06:26:08;100507.97;;;25.08;100.00
24230;BME280;12362;50.004;8.006;2023-06-22T06:28:34;100498.19;;;25.41;100.00
24230;BME280;12362;50.004;8.006;2023-06-22T06:31:00;100488.41;;;25.81;100.00
24230;BME280;12362;50.004;8.006;2023-06-22T06:33:26;100489.22;;;25.74;100.00
24230;BME280;12362;50.004;8.006;2023-06-22T06:35:51;100483.06;;;25.73;100.00
24230;BME280;12362;50.004;8.006;2023-06-22T06:38:17;100467.53;;;26.08;100.00
24230;BME280;12362;50.004;8.006;2023-06-22T06:40:43;100464.88;;;26.00;100.00
24230;BME280;12362;50.004;8.006;2023-06-22T06:43:10;100479.38;;;25.98;100.00
24230;BME280;12362;50.004;8.006;2023-06-22T06:45:36;100471.16;;;26.15;100.00
24230;BME280;12362;50.004;8.006;2023-06-22T06:48:01;100470.38;;;26.53;100.00
24230;BME280;12362;50.004;8.006;2023-06-22T06:50:27;100474.97;;;26.67;100.00
24230;BME280;12362;50.004;8.006;2023-06-22T06:52:53;100460.06;;;27.33;100.00
24230;BME280;12362;50.004;8.006;2023-06-22T06:55:19;100449.50;;;27.54;100.00
24230;BME280;12362;50.004;8.006;2023-06-22T06:57:45;100438.97;;;27.89;100.00
24230;BME280;12362;50.004;8.006;2023-06-22T07:00:14;100447.75;;;27.98;100.00
24230;BME280;12362;50.004;8.006;2023-06-22T07:02:44;100446.00;;;28.34;100.00
24230;BME280;12362;50.004;8.006;2023-06-22T07:05:11;100453.91;;;28.13;100.00
24230;BME280;12362;50.004;8.006;2023-06-22T07:07:38;100455.28;;;27.43;100.00
24230;BME280;12362;50.004;8.006;2023-06-22T07:10:05;100459.81;;;27.94;100.00
24230;BME280;12362;50.004;8.006;2023-06-22T07:12:31;100461.84;;;28.06;100.00
24230;BME280;12362;50.004;8.006;2023-06-22T07:15:07;100443.69;;;28.45;100.00
24230;BME280;12362;50.004;8.006;2023-06-22T07:17:34;100441.47;;;28.20;100.00
24230;BME280;12362;50.004;8.006;2023-06-22T07:19:59;100437.34;;;28.81;100.00
24230;BME280;12362;50.004;8.006;2023-06-22T07:22:25;100427.22;;;29.19;100.00
24230;BME280;12362;50.004;8.006;2023-06-22T07:24:53;100425.00;;;29.43;100.00
24230;BME280;12362;50.004;8.006;2023-06-22T07:27:19;100420.59;;;29.63;100.00
24230;BME280;12362;50.004;8.006;2023-06-22T07:29:46;100419.06;;;29.81;100.00
24230;BME280;12362;50.004;8.006;2023-06-22T07:32:12;100409.88;;;29.63;100.00
24230;BME280;12362;50.004;8.006;2023-06-22T07:34:37;100405.00;;;30.00;100.00
24230;BME280;12362;50.004;8.006;2023-06-22T07:37:03;100400.00;;;30.38;100.00
24230;BME280;12362;50.004;8.006;2023-06-22T07:39:30;100388.00;;;31.00;100.00
24230;BME280;12362;50.004;8.006;2023-06-22T07:41:56;100399.94;;;30.71;100.00
24230;BME280;12362;50.004;8.006;2023-06-22T07:44:24;100382.19;;;30.70;100.00
24230;BME280;12362;50.004;8.006;2023-06-22T07:46:50;100382.16;;;30.57;100.00
24230;BME280;12362;50.004;8.006;2023-06-22T07:49:17;100383.63;;;30.60;100.00
24230;BME280;12362;50.004;8.006;2023-06-22T07:51:42;100381.16;;;30.71;100.00
24230;BME280;12362;50.004;8.006;2023-06-22T07:54:09;100392.16;;;31.15;100.00
24230;BME280;12362;50.004;8.006;2023-06-22T07:56:36;100392.19;;;31.09;100.00
24230;BME280;12362;50.004;8.006;2023-06-22T07:59:02;100383.06;;;31.10;100.00
24230;BME280;12362;50.004;8.006;2023-06-22T08:01:29;100386.56;;;30.91;100.00
24230;BME280;12362;50.004;8.006;2023-06-22T08:03:54;100384.72;;;31.04;100.00
24230;BME280;12362;50.004;8.006;2023-06-22T08:06:19;100381.00;;;31.31;100.00
24230;BME280;12362;50.004;8.006;2023-06-22T08:08:45;100375.66;;;31.18;100.00
24230;BME280;12362;50.004;8.006;2023-06-22T08:11:13;100369.00;;;31.53;100.00
24230;BME280;12362;50.004;8.006;2023-06-22T08:13:38;100359.84;;;31.93;100.00
24230;BME280;12362;50.004;8.006;2023-06-22T08:16:04;100373.38;;;31.22;100.00
24230;BME280;12362;50.004;8.006;2023-06-22T08:18:30;100363.63;;;31.72;100.00
24230;BME280;12362;50.004;8.006;2023-06-22T08:20:56;100361.56;;;32.31;96.04
24230;BME280;12362;50.004;8.006;2023-06-22T08:23:21;100356.28;;;32.05;98.28
24230;BME280;12362;50.004;8.006;2023-06-22T08:25:47;100348.81;;;32.14;100.00
24230;BME280;12362;50.004;8.006;2023-06-22T08:28:15;100354.75;;;31.78;100.00
24230;BME280;12362;50.004;8.006;2023-06-22T08:30:40;100359.97;;;32.17;100.00
24230;BME280;12362;50.004;8.006;2023-06-22T08:33:06;100359.47;;;31.83;96.50
24230;BME280;12362;50.004;8.006;2023-06-22T08:35:31;100341.09;;;31.80;88.97
24230;BME280;12362;50.004;8.006;2023-06-22T08:37:57;100354.69;;;31.91;95.15
24230;BME280;12362;50.004;8.006;2023-06-22T08:40:23;100333.78;;;31.93;96.12
24230;BME280;12362;50.004;8.006;2023-06-22T08:42:49;100321.03;;;32.33;82.30
24230;BME280;12362;50.004;8.006;2023-06-22T08:45:15;100323.06;;;31.87;86.22
24230;BME280;12362;50.004;8.006;2023-06-22T08:47:41;100326.06;;;31.59;95.34
24230;BME280;12362;50.004;8.006;2023-06-22T08:50:09;100328.25;;;31.82;86.73
24230;BME280;12362;50.004;8.006;2023-06-22T08:52:35;100328.34;;;32.06;96.32
24230;BME280;12362;50.004;8.006;2023-06-22T08:55:01;100326.88;;;31.53;97.71
24230;BME280;12362;50.004;8.006;2023-06-22T08:57:27;100327.53;;;30.91;100.00
24230;BME280;12362;50.004;8.006;2023-06-22T08:59:53;100302.72;;;30.56;98.93
24230;BME280;12362;50.004;8.006;2023-06-22T09:02:19;100299.84;;;31.99;96.91
24230;BME280;12362;50.004;8.006;2023-06-22T09:04:48;100302.56;;;32.73;87.08
24230;BME280;12362;50.004;8.006;2023-06-22T09:07:14;100296.34;;;32.97;87.79
24230;BME280;12362;50.004;8.006;2023-06-22T09:09:39;100297.88;;;33.36;87.02
24230;BME280;12362;50.004;8.006;2023-06-22T09:12:05;100297.72;;;33.31;85.30
24230;BME280;12362;50.004;8.006;2023-06-22T09:14:30;100301.44;;;33.05;85.56
24230;BME280;12362;50.004;8.006;2023-06-22T09:16:56;100307.94;;;32.43;80.61
24230;BME280;12362;50.004;8.006;2023-06-22T09:19:21;100317.72;;;31.80;97.23
24230;BME280;12362;50.004;8.006;2023-06-22T09:21:47;100308.25;;;32.22;89.09
24230;BME280;12362;50.004;8.006;2023-06-22T09:24:12;100302.47;;;31.68;93.23
24230;BME280;12362;50.004;8.006;2023-06-22T09:26:38;100307.13;;;31.92;97.07
24230;BME280;12362;50.004;8.006;2023-06-22T09:29:06;100303.03;;;31.83;94.39
24230;BME280;12362;50.004;8.006;2023-06-22T09:31:32;100305.03;;;31.37;96.19
24230;BME280;12362;50.004;8.006;2023-06-22T09:33:58;100297.31;;;31.66;88.90
24230;BME280;12362;50.004;8.006;2023-06-22T09:36:23;100286.69;;;31.84;93.85
24230;BME280;12362;50.004;8.006;2023-06-22T09:38:49;100282.94;;;31.92;91.09
24230;BME280;12362;50.004;8.006;2023-06-22T09:41:20;100269.78;;;31.77;98.39
24230;BME280;12362;50.004;8.006;2023-06-22T09:43:49;100259.63;;;32.54;87.43
24230;BME280;12362;50.004;8.006;2023-06-22T09:46:17;100256.13;;;32.53;88.32
24230;BME280;12362;50.004;8.006;2023-06-22T09:48:43;100255.81;;;33.52;85.62
24230;BME280;12362;50.004;8.006;2023-06-22T09:51:08;100246.53;;;33.84;77.70
24230;BME280;12362;50.004;8.006;2023-06-22T09:53:34;100241.47;;;34.76;80.23
24230;BME280;12362;50.004;8.006;2023-06-22T09:56:00;100229.13;;;35.03;75.33
24230;BME280;12362;50.004;8.006;2023-06-22T09:58:27;100226.53;;;34.62;77.01
24230;BME280;12362;50.004;8.006;2023-06-22T10:00:52;100219.72;;;34.59;74.47
24230;BME280;12362;50.004;8.006;2023-06-22T10:03:19;100229.78;;;34.52;72.57
24230;BME280;12362;50.004;8.006;2023-06-22T10:05:45;100220.22;;;33.98;75.23
24230;BME280;12362;50.004;8.006;2023-06-22T10:08:10;100229.84;;;33.40;79.10
24230;BME280;12362;50.004;8.006;2023-06-22T10:10:36;100232.91;;;32.83;87.06
24230;BME280;12362;50.004;8.006;2023-06-22T10:13:09;100239.56;;;32.26;88.81
24230;BME280;12362;50.004;8.006;2023-06-22T10:15:35;100239.41;;;32.76;86.34
24230;BME280;12362;50.004;8.006;2023-06-22T10:18:01;100230.75;;;32.92;83.43
24230;BME280;12362;50.004;8.006;2023-06-22T10:20:27;100218.97;;;32.93;76.50
24230;BME280;12362;50.004;8.006;2023-06-22T10:22:53;100220.50;;;32.58;81.45
24230;BME280;12362;50.004;8.006;2023-06-22T10:25:19;100206.53;;;33.34;84.68
24230;BME280;12362;50.004;8.006;2023-06-22T10:27:45;100207.63;;;33.09;79.01
24230;BME280;12362;50.004;8.006;2023-06-22T10:30:11;100195.50;;;33.36;81.87
24230;BME280;12362;50.004;8.006;2023-06-22T10:32:38;100191.63;;;34.08;77.30
24230;BME280;12362;50.004;8.006;2023-06-22T10:35:04;100179.66;;;33.63;78.01
24230;BME280;12362;50.004;8.006;2023-06-22T10:37:30;100171.69;;;34.27;68.64
24230;BME280;12362;50.004;8.006;2023-06-22T10:39:56;100179.50;;;33.88;78.28
24230;BME280;12362;50.004;8.006;2023-06-22T10:42:21;100180.59;;;33.98;72.96
24230;BME280;12362;50.004;8.006;2023-06-22T10:44:47;100167.53;;;34.13;78.05
24230;BME280;12362;50.004;8.006;2023-06-22T10:47:12;100158.56;;;34.53;70.93
24230;BME280;12362;50.004;8.006;2023-06-22T10:49:39;100156.09;;;34.40;70.80
24230;BME280;12362;50.004;8.006;2023-06-22T10:52:08;100160.69;;;34.86;70.53
24230;BME280;12362;50.004;8.006;2023-06-22T10:54:34;100149.63;;;35.61;67.17
24230;BME280;12362;50.004;8.006;2023-06-22T10:57:01;100139.75;;;36.43;64.25
24230;BME280;12362;50.004;8.006;2023-06-22T10:59:26;100148.63;;;36.06;57.50
24230;BME280;12362;50.004;8.006;2023-06-22T11:01:53;100136.00;;;35.84;62.70
24230;BME280;12362;50.004;8.006;2023-06-22T11:04:18;100142.75;;;35.98;57.81
24230;BME280;12362;50.004;8.006;2023-06-22T11:06:44;100137.78;;;35.78;61.66
24230;BME280;12362;50.004;8.006;2023-06-22T11:09:09;100124.66;;;36.31;60.66
24230;BME280;12362;50.004;8.006;2023-06-22T11:11:35;100127.63;;;36.46;60.71
24230;BME280;12362;50.004;8.006;2023-06-22T11:14:00;100125.25;;;36.87;56.90
24230;BME280;12362;50.004;8.006;2023-06-22T11:16:26;100116.09;;;37.10;56.33
24230;BME280;12362;50.004;8.006;2023-06-22T11:18:52;100110.50;;;36.78;51.13
24230;BME280;12362;50.004;8.006;2023-06-22T11:21:17;100122.63;;;36.54;53.44
24230;BME280;12362;50.004;8.006;2023-06-22T11:23:43;100120.25;;;36.25;54.85
24230;BME280;12362;50.004;8.006;2023-06-22T11:26:08;100111.28;;;37.17;51.87
24230;BME280;12362;50.004;8.006;2023-06-22T11:28:33;100112.25;;;37.27;49.81
24230;BME280;12362;50.004;8.006;2023-06-22T11:30:59;100104.53;;;37.19;46.65
24230;BME280;12362;50.004;8.006;2023-06-22T11:33:24;100088.69;;;37.06;50.66
24230;BME280;12362;50.004;8.006;2023-06-22T11:35:50;100094.88;;;37.49;48.11
24230;BME280;12362;50.004;8.006;2023-06-22T11:38:15;100096.53;;;36.86;48.82
24230;BME280;12362;50.004;8.006;2023-06-22T11:40:42;100099.53;;;37.06;47.71
24230;BME280;12362;50.004;8.006;2023-06-22T11:43:07;100108.66;;;35.97;47.95
24230;BME280;12362;50.004;8.006;2023-06-22T11:45:33;100106.75;;;35.97;50.85
24230;BME280;12362;50.004;8.006;2023-06-22T11:47:58;100094.34;;;37.05;48.65
24230;BME280;12362;50.004;8.006;2023-06-22T11:50:24;100078.88;;;38.01;46.83
24230;BME280;12362;50.004;8.006;2023-06-22T11:52:49;100068.72;;;37.60;45.50
24230;BME280;12362;50.004;8.006;2023-06-22T11:55:16;100082.88;;;37.19;47.78
24230;BME280;12362;50.004;8.006;2023-06-22T11:57:54;100065.06;;;37.76;48.55
24230;BME280;12362;50.004;8.006;2023-06-22T12:00:19;100071.94;;;38.56;47.99
24230;BME280;12362;50.004;8.006;2023-06-22T12:02:46;100062.78;;;39.33;48.31
24230;BME280;12362;50.004;8.006;2023-06-22T12:05:11;100063.56;;;39.09;46.37
24230;BME280;12362;50.004;8.006;2023-06-22T12:07:37;100062.88;;;39.58;45.82
24230;BME280;12362;50.004;8.006;2023-06-22T12:10:03;100061.28;;;40.36;42.88
24230;BME280;12362;50.004;8.006;2023-06-22T12:12:29;100051.47;;;40.06;40.02
24230;BME280;12362;50.004;8.006;2023-06-22T12:14:54;100046.25;;;39.49;42.01
24230;BME280;12362;50.004;8.006;2023-06-22T12:17:20;100044.03;;;39.31;41.49
24230;BME280;12362;50.004;8.006;2023-06-22T12:19:45;100057.31;;;39.13;41.87
24230;BME280;12362;50.004;8.006;2023-06-22T12:22:11;100042.50;;;39.70;45.15
24230;BME280;12362;50.004;8.006;2023-06-22T12:24:36;100035.91;;;39.36;40.70
24230;BME280;12362;50.004;8.006;2023-06-22T12:27:02;100028.81;;;39.35;45.17
24230;BME280;12362;50.004;8.006;2023-06-22T12:29:28;100028.16;;;39.04;40.04
24230;BME280;12362;50.004;8.006;2023-06-22T12:31:54;100017.22;;;38.84;42.93
24230;BME280;12362;50.004;8.006;2023-06-22T12:34:19;100026.81;;;38.09;40.63
24230;BME280;12362;50.004;8.006;2023-06-22T12:36:45;100029.81;;;38.07;41.94
24230;BME280;12362;50.004;8.006;2023-06-22T12:39:13;100027.44;;;37.84;41.46
24230;BME280;12362;50.004;8.006;2023-06-22T12:41:38;100028.34;;;37.95;41.50
24230;BME280;12362;50.004;8.006;2023-06-22T12:44:04;100029.03;;;37.28;45.12
24230;BME280;12362;50.004;8.006;2023-06-22T12:46:30;100021.47;;;37.29;41.60
24230;BME280;12362;50.004;8.006;2023-06-22T12:49:02;100014.16;;;38.65;43.15